Time;durP1;ratioP1;P1;durP2;ratioP2;P2;SDS_P1;SDS_P2;PMS_P1;PMS_P2;Temp;Humidity;BMP_temperature;BMP_pressure;BME280_temperature;BME280_humidity;BME280_pressure;Samples;Min_cycle;Max_cycle;Signal;HPM_P1;HPM_P2
2022/09/23 00:08:56;;;;;;;11.10;7.80;;;;;;;4.87;81.80;99981.59;445898;1275;142591;-63
2022/09/23 00:19:02;;;;;;;8.60;7.10;;;;;;;4.70;82.25;99981.11;446864;1273;153206;-63
2022/09/23 00:29:08;;;;;;;9.30;8.10;;;;;;;4.50;82.58;99981.77;446165;1274;143619;-63
2022/09/23 00:39:13;;;;;;;11.70;8.30;;;;;;;4.34;82.96;99979.52;446648;1274;142082;-63
2022/09/23 00:49:29;;;;;;;11.70;8.20;;;;;;;4.22;83.12;99974.70;446843;1273;143035;-62
2022/09/23 00:59:35;;;;;;;11.40;9.10;;;;;;;4.07;83.13;99971.69;445904;1275;145530;-63
2022/09/23 01:09:41;;;;;;;10.90;7.30;;;;;;;3.88;83.00;99974.00;446841;1273;142849;-63
2022/09/23 01:20:13;;;;;;;11.10;8.60;;;;;;;3.75;83.12;99972.48;446858;1274;142556;-63
2022/09/23 01:30:44;;;;;;;9.00;7.50;;;;;;;3.68;83.73;99969.23;446835;1273;143014;-63
2022/09/23 01:40:58;;;;;;;10.30;8.20;;;;;;;3.51;83.83;99965.73;446849;1274;142044;-61
2022/09/23 01:51:09;;;;;;;10.30;8.40;;;;;;;3.40;84.33;99967.06;446841;1273;146174;-62
2022/09/23 02:01:20;;;;;;;9.60;8.20;;;;;;;3.32;84.71;99958.81;446810;1274;143067;-63
2022/09/23 02:11:26;;;;;;;11.90;9.10;;;;;;;3.18;84.71;99953.48;446077;1274;201061;-61
2022/09/23 02:21:36;;;;;;;10.50;7.50;;;;;;;3.02;84.77;99959.98;446803;1273;142252;-62
2022/09/23 02:31:45;;;;;;;11.70;7.90;;;;;;;2.90;84.97;99957.02;446847;1272;143340;-63
2022/09/23 02:41:59;;;;;;;10.20;8.30;;;;;;;2.71;84.56;99953.52;445975;1275;142484;-62
2022/09/23 02:52:06;;;;;;;10.30;7.80;;;;;;;2.57;84.94;99955.25;446675;1275;142326;-62
2022/09/23 03:02:28;;;;;;;14.10;10.00;;;;;;;2.49;85.07;99963.07;445895;1275;141920;-62
2022/09/23 03:12:42;;;;;;;15.70;11.60;;;;;;;2.56;85.47;99963.22;446705;1275;142748;-63
2022/09/23 03:22:54;;;;;;;15.40;10.80;;;;;;;2.91;86.12;99965.61;446657;1275;142691;-63
2022/09/23 03:33:03;;;;;;;16.00;10.80;;;;;;;3.15;86.40;99959.64;446362;1275;143580;-62
2022/09/23 03:43:10;;;;;;;17.70;11.30;;;;;;;3.36;86.92;99955.41;446706;1274;152166;-62
2022/09/23 03:53:17;;;;;;;17.60;10.20;;;;;;;3.65;87.48;99952.67;434693;1275;142639;-61
2022/09/23 04:03:28;;;;;;;20.60;8.60;;;;;;;3.93;88.07;99946.65;446677;1274;144980;-63
2022/09/23 04:13:34;;;;;;;17.60;9.60;;;;;;;4.04;88.73;99945.96;446760;1273;142585;-63
2022/09/23 04:23:40;;;;;;;15.30;8.80;;;;;;;4.18;88.87;99945.36;445994;1273;142301;-62
2022/09/23 04:33:46;;;;;;;18.90;10.00;;;;;;;4.35;89.51;99948.96;446537;1274;187298;-63
2022/09/23 04:43:52;;;;;;;18.20;11.10;;;;;;;4.51;89.81;99950.71;446761;1273;143235;-62
2022/09/23 04:53:58;;;;;;;14.90;10.20;;;;;;;4.67;89.99;99948.28;445866;1274;142653;-62
2022/09/23 05:04:06;;;;;;;20.50;11.60;;;;;;;4.89;90.01;99942.14;446775;1274;142690;-62
2022/09/23 05:14:11;;;;;;;41.70;31.50;;;;;;;5.07;90.07;99938.41;445923;1273;142817;-62
2022/09/23 05:24:18;;;;;;;20.50;12.30;;;;;;;5.28;89.96;99940.63;446702;1275;143122;-63
2022/09/23 05:34:24;;;;;;;11.60;9.90;;;;;;;5.47;89.61;99948.23;446665;1274;142647;-63
2022/09/23 05:44:30;;;;;;;14.30;10.40;;;;;;;5.82;89.56;99948.16;445605;1274;142883;-63
2022/09/23 05:54:36;;;;;;;14.10;12.30;;;;;;;6.25;88.82;99950.52;446451;1274;143076;-63
2022/09/23 06:04:42;;;;;;;14.50;11.10;;;;;;;6.64;88.08;99956.44;446783;1274;142873;-62
2022/09/23 06:14:49;;;;;;;13.90;10.90;;;;;;;7.31;87.88;99951.27;446096;1274;142812;-64
2022/09/23 06:24:55;;;;;;;14.90;11.00;;;;;;;8.14;86.25;99948.67;446674;1275;145559;-63
2022/09/23 06:35:01;;;;;;;17.90;13.60;;;;;;;8.79;85.00;99953.92;446006;1274;143738;-63
2022/09/23 06:45:10;;;;;;;14.70;10.00;;;;;;;10.28;83.90;99957.86;446529;1275;145890;-63
2022/09/23 06:55:16;;;;;;;14.90;8.90;;;;;;;13.72;81.51;99950.41;444594;1275;142079;-64
2022/09/23 07:05:22;;;;;;;10.00;8.10;;;;;;;16.86;74.84;99945.04;445845;1275;144258;-62
2022/09/23 07:15:28;;;;;;;14.00;8.30;;;;;;;19.58;71.33;99944.95;446485;1275;142983;-62
2022/09/23 07:25:34;;;;;;;9.40;8.50;;;;;;;24.21;63.82;99938.34;446637;1275;142572;-62
2022/09/23 07:35:42;;;;;;;7.70;5.90;;;;;;;23.82;59.69;99943.13;445967;1275;142234;-62
2022/09/23 07:45:48;;;;;;;14.00;7.90;;;;;;;25.25;55.49;99947.93;446806;1274;143198;-62
2022/09/23 07:55:55;;;;;;;8.70;6.70;;;;;;;26.12;51.71;99948.81;446905;1274;143048;-61
2022/09/23 08:06:10;;;;;;;9.10;5.30;;;;;;;26.47;49.41;99942.48;446629;1276;144860;-61
2022/09/23 08:16:16;;;;;;;7.60;6.80;;;;;;;28.17;46.66;99934.38;446949;1274;142383;-67
2022/09/23 08:26:22;;;;;;;5.60;4.70;;;;;;;24.15;45.87;99938.20;445892;1275;159242;-68
2022/09/23 08:36:28;;;;;;;5.10;4.30;;;;;;;23.56;47.44;99935.63;446691;1275;140714;-67
2022/09/23 08:46:38;;;;;;;5.00;4.50;;;;;;;22.93;46.49;99933.29;446904;1274;143817;-67
2022/09/23 08:56:51;;;;;;;5.10;3.00;;;;;;;21.15;47.54;99928.30;445876;1274;430349;-63
2022/09/23 09:07:02;;;;;;;3.40;3.10;;;;;;;19.76;47.76;99920.64;446554;1275;142917;-63
2022/09/23 09:17:37;;;;;;;6.60;2.80;;;;;;;18.08;48.84;99922.09;446103;1274;142965;-63
2022/09/23 09:27:43;;;;;;;2.50;2.00;;;;;;;17.06;50.64;99915.66;434181;1277;141988;-61
2022/09/23 09:37:49;;;;;;;1.60;1.50;;;;;;;17.09;50.82;99900.33;444854;1272;141123;-62
2022/09/23 09:48:09;;;;;;;1.00;0.90;;;;;;;16.82;49.85;99892.59;446142;1274;142216;-63
2022/09/23 09:58:15;;;;;;;2.60;1.10;;;;;;;16.02;51.12;99888.24;446895;1274;141663;-63
2022/09/23 10:08:26;;;;;;;2.70;0.90;;;;;;;16.18;50.37;99878.96;446171;1274;192333;-62
2022/09/23 10:18:36;;;;;;;1.00;0.90;;;;;;;16.49;50.25;99868.33;446925;1274;142077;-63
2022/09/23 10:28:50;;;;;;;2.80;1.20;;;;;;;16.59;50.04;99865.86;446548;1275;143192;-62
2022/09/23 10:46:37;;;;;;;1.50;1.40;;;;;;;15.39;50.92;99859.34;446160;1274;142706;-63
2022/09/23 10:49:51;;;;;;;1.50;1.30;;;;;;;14.63;52.16;99862.08;446984;1274;142395;-63
2022/09/23 11:00:02;;;;;;;3.80;1.10;;;;;;;14.46;52.97;99858.39;445583;1275;141967;-63
2022/09/23 11:10:51;;;;;;;4.80;1.00;;;;;;;14.66;53.33;99854.95;446399;1275;150926;-63
2022/09/23 11:21:08;;;;;;;0.60;0.60;;;;;;;15.37;52.01;99838.89;445387;1275;143202;-63
2022/09/23 11:31:27;;;;;;;1.80;0.80;;;;;;;15.18;51.06;99835.29;446883;1274;141554;-64
2022/09/23 11:41:32;;;;;;;;;;;;;;;14.78;51.19;99829.94;445863;1274;144465;-62
2022/09/23 11:51:44;;;;;;;0.60;0.60;;;;;;;14.58;52.09;99828.08;447150;1274;129281;-63
2022/09/23 12:01:54;;;;;;;1.30;0.70;;;;;;;14.82;52.32;99803.00;446520;1275;141928;-62
2022/09/23 12:12:11;;;;;;;1.00;0.60;;;;;;;15.02;50.99;99794.20;446390;1275;141629;-62
2022/09/23 12:22:35;;;;;;;0.30;0.30;;;;;;;15.02;49.95;99794.73;446847;1274;142817;-62
2022/09/23 12:32:42;;;;;;;1.70;1.30;;;;;;;15.14;50.15;99787.29;446153;1273;143846;-62
2022/09/23 12:42:49;;;;;;;2.70;0.60;;;;;;;14.83;50.59;99786.04;446948;1272;141993;-62
2022/09/23 12:52:56;;;;;;;1.60;0.60;;;;;;;14.67;50.62;99777.20;447095;1273;143977;-62
2022/09/23 13:13:30;;;;;;;1.10;1.00;;;;;;;15.12;49.30;99760.95;447072;1273;141890;-62
2022/09/23 13:23:37;;;;;;;5.60;1.00;;;;;;;15.46;49.01;99752.96;446348;1273;186204;-63
2022/09/23 13:33:46;;;;;;;2.00;0.90;;;;;;;15.07;49.66;99738.80;447095;1272;142695;-63
2022/09/23 13:43:57;;;;;;;3.20;1.60;;;;;;;14.74;50.03;99729.73;446667;1275;142574;-63
2022/09/23 13:54:04;;;;;;;1.40;0.90;;;;;;;14.96;50.29;99718.88;446314;1275;142799;-62
2022/09/23 14:04:24;;;;;;;2.00;1.20;;;;;;;14.76;50.46;99714.96;446240;1275;144595;-62
2022/09/23 14:14:34;;;;;;;1.10;1.00;;;;;;;14.39;51.17;99711.33;445562;1275;142847;-62
2022/09/23 14:24:40;;;;;;;1.50;1.20;;;;;;;14.19;51.78;99702.65;446650;1275;140818;-65
2022/09/23 14:34:49;;;;;;;1.30;1.00;;;;;;;14.31;51.31;99698.90;446687;1273;144624;-62
2022/09/23 14:44:56;;;;;;;0.90;0.80;;;;;;;14.21;50.71;99693.33;446030;1274;142370;-62
2022/09/23 14:55:02;;;;;;;2.80;0.90;;;;;;;13.86;50.94;99697.61;446826;1274;143876;-62
2022/09/23 15:05:16;;;;;;;1.60;1.10;;;;;;;13.99;51.30;99684.09;446068;1274;141740;-62
2022/09/23 15:15:27;;;;;;;0.90;0.90;;;;;;;14.10;51.41;99676.41;446833;1274;142922;-62
2022/09/23 15:25:35;;;;;;;3.80;1.10;;;;;;;14.08;51.78;99669.56;446852;1274;144150;-63
2022/09/23 15:35:46;;;;;;;6.20;1.50;;;;;;;13.79;51.49;99674.90;445653;1274;141641;-64
2022/09/23 15:45:54;;;;;;;1.20;1.10;;;;;;;13.41;51.40;99674.18;441855;1274;142508;-64
2022/09/23 15:56:00;;;;;;;1.70;1.60;;;;;;;13.00;51.49;99670.14;433852;1274;141633;-65
2022/09/23 16:06:12;;;;;;;1.10;0.90;;;;;;;12.53;51.86;99666.44;436780;1274;214278;-64
2022/09/23 16:16:19;;;;;;;4.40;1.40;;;;;;;11.98;52.97;99663.55;446908;1274;142553;-64
2022/09/23 16:26:28;;;;;;;2.90;1.60;;;;;;;11.42;54.90;99668.86;445961;1275;142490;-64
2022/09/23 16:36:38;;;;;;;4.40;1.80;;;;;;;10.85;57.30;99672.34;446705;1275;142773;-64
2022/09/23 16:46:44;;;;;;;4.50;2.50;;;;;;;10.39;58.78;99671.36;446610;1275;142785;-64
2022/09/23 16:56:51;;;;;;;14.50;4.30;;;;;;;9.96;60.38;99670.59;436556;1275;141437;-61
2022/09/23 17:06:58;;;;;;;14.40;8.70;;;;;;;9.59;61.73;99666.50;446024;1274;142765;-63
2022/09/23 17:17:04;;;;;;;17.70;9.10;;;;;;;9.30;63.09;99665.52;441659;1275;142592;-67
2022/09/23 17:27:10;;;;;;;19.50;10.30;;;;;;;9.11;64.40;99669.91;446348;1275;142572;-70
2022/09/23 17:37:16;;;;;;;14.20;9.90;;;;;;;9.09;65.22;99674.59;445718;1275;143878;-68
2022/09/23 17:47:22;;;;;;;16.10;9.10;;;;;;;9.05;66.02;99667.08;445942;1274;161844;-69
2022/09/23 17:57:28;;;;;;;8.40;6.50;;;;;;;8.96;66.77;99668.29;446858;1274;145659;-69
2022/09/23 18:07:34;;;;;;;23.60;14.20;;;;;;;8.95;67.48;99669.41;441975;1274;144999;-70
2022/09/23 18:17:40;;;;;;;39.90;31.20;;;;;;;8.93;67.86;99666.34;435385;1274;143418;-68
2022/09/23 18:27:46;;;;;;;39.20;28.70;;;;;;;8.93;68.05;99666.23;446828;1274;197290;-67
2022/09/23 18:37:52;;;;;;;30.00;24.20;;;;;;;8.90;68.68;99660.08;446828;1274;144897;-69
2022/09/23 18:58:22;;;;;;;59.30;41.60;;;;;;;8.80;69.89;99659.56;443667;1274;142911;-68
2022/09/23 19:08:28;;;;;;;64.90;52.30;;;;;;;8.70;70.61;99660.13;431146;1274;144783;-66
2022/09/23 19:18:35;;;;;;;62.40;47.50;;;;;;;8.60;71.34;99664.86;431031;1273;144046;-66
2022/09/23 19:28:46;;;;;;;59.50;48.00;;;;;;;8.51;72.13;99669.16;439180;1274;144367;-68
2022/09/23 19:38:55;;;;;;;72.80;59.00;;;;;;;8.44;72.50;99663.61;440069;1273;147197;-63
2022/09/23 19:49:02;;;;;;;77.00;56.30;;;;;;;8.31;72.83;99661.83;437379;1273;146767;-62
2022/09/23 19:59:08;;;;;;;81.00;60.90;;;;;;;8.09;73.35;99652.39;437773;1274;143731;-62
2022/09/23 20:09:14;;;;;;;73.30;57.70;;;;;;;7.78;73.71;99643.48;436136;1273;146207;-62
2022/09/23 20:19:20;;;;;;;69.80;54.60;;;;;;;7.48;74.43;99651.46;439140;1274;142814;-63
2022/09/23 20:29:26;;;;;;;70.90;54.70;;;;;;;7.24;75.32;99650.02;435332;1273;143712;-62
2022/09/23 20:39:32;;;;;;;70.00;54.50;;;;;;;7.13;76.17;99646.38;433277;1273;199924;-62
2022/09/23 20:49:41;;;;;;;67.10;51.40;;;;;;;6.99;76.59;99654.34;430833;1274;171485;-61
2022/09/23 20:59:48;;;;;;;79.40;58.90;;;;;;;6.92;77.23;99649.14;430124;1273;201626;-63
2022/09/23 21:09:54;;;;;;;80.00;58.10;;;;;;;6.92;77.94;99641.80;430439;1273;142119;-63
2022/09/23 21:20:00;;;;;;;79.50;60.10;;;;;;;6.95;78.20;99639.59;429890;1275;145450;-63
2022/09/23 21:30:08;;;;;;;62.70;47.40;;;;;;;6.85;78.44;99633.42;429608;1274;153024;-63
2022/09/23 21:50:39;;;;;;;59.20;47.00;;;;;;;6.77;79.78;99624.05;429286;1276;147000;-62
2022/09/23 22:00:45;;;;;;;71.30;52.70;;;;;;;6.79;80.43;99626.42;431397;1276;143084;-62
2022/09/23 22:10:51;;;;;;;71.50;55.80;;;;;;;6.85;80.83;99621.59;430289;1276;146014;-64
2022/09/23 22:20:58;;;;;;;65.80;50.30;;;;;;;6.88;80.94;99621.28;428737;1276;148206;-64
2022/09/23 22:41:28;;;;;;;56.20;43.70;;;;;;;6.98;81.38;99613.33;428663;1274;148119;-62
2022/09/23 22:51:35;;;;;;;43.40;32.40;;;;;;;6.96;81.31;99617.23;429548;1274;143726;-62
2022/09/23 23:01:41;;;;;;;59.50;42.30;;;;;;;7.00;81.09;99614.95;430812;1276;145802;-62
2022/09/23 23:11:48;;;;;;;49.70;39.00;;;;;;;6.97;81.03;99606.42;429248;1275;142605;-62
2022/09/23 23:21:54;;;;;;;39.10;32.50;;;;;;;6.98;81.13;99603.39;429659;1274;142712;-63
2022/09/23 23:32:00;;;;;;;46.90;34.00;;;;;;;7.04;81.17;99597.72;429566;1274;143488;-61
2022/09/23 23:42:06;;;;;;;45.70;35.00;;;;;;;7.08;81.37;99599.11;429312;1275;145449;-63
2022/09/23 23:52:12;;;;;;;41.60;32.60;;;;;;;7.12;81.53;99598.58;431545;1276;143786;-61
